Auburn, Iowa
Current Conditions -  °F | °C
As of 11:15 AM on Thursday 27 Nov 2014 (Local Time) from KCIN Reporting Station
NA  
Wind Chill: -15°   Ceiling: NA
Heat Index: -15°   Visibility: 10mi
Dew Point: -20°   Wind: 3mph
Humidity: 66%   Direction: NA
Pressure: 30.54"   Gusts: NA
Location:  42.25°N, 94.88°W
Report Text: KCIN 271715Z AUTO VRB03KT 10SM M15/M20 A3054 RMK AO2
Loading
Personal Weather Stations






























Interactive Weather Map New forecast layout! Learn more

10-Day Weather Forecast

Advertisements
Track Severe Weather on mobile